Time;durP1;ratioP1;P1;durP2;ratioP2;P2;SDS_P1;SDS_P2;PMS_P1;PMS_P2;Temp;Humidity;BMP_temperature;BMP_pressure;BME280_temperature;BME280_humidity;BME280_pressure;Samples;Min_cycle;Max_cycle;Signal;HPM_P1;HPM_P2
2022/04/10 00:00:56;;;;;;;1.70;1.60;;;3.60;99.90;;;;;;4970712;28;20536;-72
2022/04/10 00:03:25;;;;;;;1.97;1.70;;;3.70;99.90;;;;;;4970880;28;20821;-72
2022/04/10 00:05:52;;;;;;;2.67;1.60;;;3.70;99.90;;;;;;4972812;28;20422;-72
2022/04/10 00:08:18;;;;;;;6.07;2.23;;;3.70;99.90;;;;;;4973106;28;20432;-72
2022/04/10 00:10:43;;;;;;;2.13;1.87;;;3.70;99.90;;;;;;4973421;28;20394;-71
2022/04/10 00:13:11;;;;;;;4.27;1.93;;;3.70;99.90;;;;;;4972970;28;20463;-73
2022/04/10 00:15:37;;;;;;;4.60;3.00;;;3.80;99.90;;;;;;4971209;28;20172;-72
2022/04/10 00:18:03;;;;;;;2.87;2.50;;;3.80;99.90;;;;;;4972997;28;20875;-73
2022/04/10 00:20:28;;;;;;;5.37;2.90;;;3.80;99.90;;;;;;4972399;28;20467;-71
2022/04/10 00:22:54;;;;;;;3.30;2.50;;;3.80;99.90;;;;;;4972842;28;20696;-72
2022/04/10 00:25:20;;;;;;;2.83;2.67;;;3.80;99.90;;;;;;4972981;28;20208;-73
2022/04/10 00:27:46;;;;;;;9.83;3.00;;;3.80;99.90;;;;;;4972441;28;20180;-73
2022/04/10 00:30:14;;;;;;;2.97;1.90;;;3.80;99.90;;;;;;4972839;28;20507;-72
2022/04/10 00:32:39;;;;;;;6.70;2.80;;;3.80;99.90;;;;;;4972498;28;20843;-73
2022/04/10 00:35:06;;;;;;;4.27;2.37;;;3.80;99.90;;;;;;4972518;28;20425;-72
2022/04/10 00:37:33;;;;;;;3.47;2.10;;;3.70;99.90;;;;;;4973229;28;20168;-72
2022/04/10 00:39:59;;;;;;;4.97;2.37;;;3.70;99.90;;;;;;4974073;28;20417;-72
2022/04/10 00:42:32;;;;;;;3.23;2.57;;;3.70;99.90;;;;;;4972170;28;21009;-72
2022/04/10 00:44:57;;;;;;;5.90;2.33;;;3.60;99.90;;;;;;4972786;28;20180;-72
2022/04/10 00:47:23;;;;;;;4.00;2.83;;;3.60;99.90;;;;;;4972518;28;20421;-72
2022/04/10 00:49:48;;;;;;;8.90;2.70;;;3.60;99.90;;;;;;4972626;28;20269;-72
2022/04/10 00:52:14;;;;;;;5.10;2.70;;;3.50;99.90;;;;;;4972479;28;20201;-72
2022/04/10 00:54:40;;;;;;;3.03;2.73;;;3.50;99.90;;;;;;4972289;28;20173;-72
2022/04/10 00:57:06;;;;;;;7.97;2.97;;;3.40;99.90;;;;;;4975337;28;20416;-72
2022/04/10 00:59:32;;;;;;;3.90;3.07;;;3.40;99.90;;;;;;4975874;28;20640;-72
2022/04/10 02:32:34;;;;;;;5.83;3.50;;;3.00;99.90;;;;;;5174029;23;20481;-73
2022/04/10 02:35:00;;;;;;;4.03;3.00;;;3.00;99.90;;;;;;4977819;28;20837;-73
2022/04/10 02:37:25;;;;;;;5.73;3.30;;;2.90;99.90;;;;;;4973729;28;20224;-73
2022/04/10 02:39:51;;;;;;;3.83;3.10;;;2.90;99.90;;;;;;4959177;28;20193;-73
2022/04/10 02:42:16;;;;;;;3.17;2.87;;;2.80;99.90;;;;;;4959784;28;20251;-73
2022/04/10 02:44:42;;;;;;;4.83;3.57;;;2.80;99.90;;;;;;4954969;28;20592;-72
2022/04/10 02:47:07;;;;;;;4.73;3.30;;;2.70;99.90;;;;;;4954669;29;20214;-74
2022/04/10 02:49:33;;;;;;;6.90;3.43;;;2.70;99.90;;;;;;4955059;29;20177;-74
2022/04/10 02:51:58;;;;;;;2.97;2.67;;;2.70;99.90;;;;;;4954584;28;20238;-74
2022/04/10 02:54:24;;;;;;;9.73;3.10;;;2.60;99.90;;;;;;4954959;29;20216;-74
2022/04/10 02:56:49;;;;;;;6.33;3.00;;;2.60;99.90;;;;;;4954604;29;20173;-73
2022/04/10 02:59:15;;;;;;;6.60;3.67;;;2.60;99.90;;;;;;4954534;28;20169;-73
2022/04/10 03:01:41;;;;;;;6.73;3.93;;;2.50;99.90;;;;;;4954282;28;20199;-74
2022/04/10 03:04:06;;;;;;;3.60;3.10;;;2.50;99.90;;;;;;4954676;29;20745;-74
2022/04/10 03:06:32;;;;;;;6.03;3.50;;;2.40;99.90;;;;;;4954433;29;20251;-73
2022/04/10 03:08:57;;;;;;;4.93;3.60;;;2.40;99.90;;;;;;4954491;29;20662;-73
2022/04/10 03:11:25;;;;;;;7.10;3.80;;;2.40;99.90;;;;;;4954052;28;20204;-74
2022/04/10 03:13:50;;;;;;;3.10;2.90;;;2.30;99.90;;;;;;4953222;29;20201;-74
2022/04/10 03:16:16;;;;;;;4.70;3.83;;;2.30;99.90;;;;;;4954083;29;20536;-74
2022/04/10 03:18:42;;;;;;;4.10;3.73;;;2.30;99.90;;;;;;4954046;28;20173;-74
2022/04/10 03:21:08;;;;;;;7.57;3.63;;;2.30;99.90;;;;;;4954025;28;20579;-73
2022/04/10 03:23:34;;;;;;;6.30;4.33;;;2.30;99.90;;;;;;4954465;29;20391;-74
2022/04/10 03:26:05;;;;;;;5.50;3.77;;;2.30;99.90;;;;;;4954390;28;20232;-74
2022/04/10 03:28:31;;;;;;;6.03;4.20;;;2.20;99.90;;;;;;4954408;29;20713;-74
2022/04/10 03:30:58;;;;;;;4.63;3.50;;;2.20;99.90;;;;;;4953778;28;20419;-74
2022/04/10 03:33:23;;;;;;;4.20;3.83;;;2.10;99.90;;;;;;4954233;28;20213;-73
2022/04/10 03:35:49;;;;;;;5.93;3.80;;;2.10;99.90;;;;;;4953467;28;20789;-74
2022/04/10 03:38:14;;;;;;;4.70;4.07;;;2.10;99.90;;;;;;4954049;29;20183;-73
2022/04/10 03:40:40;;;;;;;4.33;3.83;;;2.00;99.90;;;;;;4953500;28;20205;-73
2022/04/10 03:43:05;;;;;;;5.10;3.70;;;2.00;99.90;;;;;;4953853;29;20679;-74
2022/04/10 03:45:31;;;;;;;6.23;4.33;;;1.90;99.90;;;;;;4953693;29;20262;-73
2022/04/10 03:47:56;;;;;;;4.77;4.30;;;1.90;99.90;;;;;;4953999;28;20543;-73
2022/04/10 03:50:22;;;;;;;6.67;4.20;;;1.80;99.90;;;;;;4952521;29;20180;-74
2022/04/10 03:52:47;;;;;;;4.83;4.43;;;1.80;99.90;;;;;;4953663;28;20283;-74
2022/04/10 03:55:13;;;;;;;6.00;4.40;;;1.80;99.90;;;;;;4953683;29;20188;-73
2022/04/10 03:57:38;;;;;;;12.93;4.60;;;1.80;99.90;;;;;;4953581;29;20173;-74
2022/04/10 04:00:05;;;;;;;6.70;4.20;;;1.80;99.90;;;;;;4953685;29;20179;-74
2022/04/10 04:02:30;;;;;;;4.47;4.03;;;1.80;99.90;;;;;;4952410;28;20226;-74
2022/04/10 04:04:56;;;;;;;5.67;3.83;;;1.90;99.90;;;;;;4953566;28;20575;-73
2022/04/10 04:07:21;;;;;;;8.20;4.87;;;1.90;99.90;;;;;;4956792;28;20544;-73
2022/04/10 04:09:46;;;;;;;8.10;5.13;;;1.90;99.90;;;;;;4956015;29;20192;-74
2022/04/10 04:12:12;;;;;;;8.57;4.97;;;1.90;99.90;;;;;;4953392;28;20626;-73
2022/04/10 04:14:37;;;;;;;7.57;5.50;;;2.00;99.90;;;;;;4953393;29;20557;-73
2022/04/10 04:17:03;;;;;;;5.77;5.17;;;2.00;99.90;;;;;;4953382;29;20183;-74
2022/04/10 04:19:29;;;;;;;6.20;5.30;;;2.10;99.90;;;;;;4953279;29;20478;-73
2022/04/10 04:21:55;;;;;;;7.23;4.80;;;2.10;99.90;;;;;;4953049;28;20945;-73
2022/04/10 04:24:20;;;;;;;6.77;5.03;;;2.20;99.90;;;;;;4953335;29;20641;-74
2022/04/10 04:26:46;;;;;;;10.17;5.33;;;2.30;99.90;;;;;;4952086;29;20550;-73
2022/04/10 04:29:11;;;;;;;6.87;5.40;;;2.30;99.90;;;;;;4953435;28;20184;-73
2022/04/10 04:31:37;;;;;;;6.00;5.40;;;2.30;99.90;;;;;;4953913;28;20286;-73
2022/04/10 04:34:02;;;;;;;10.90;6.10;;;2.30;99.90;;;;;;4957201;29;20212;-74
2022/04/10 04:36:28;;;;;;;5.67;5.17;;;2.40;99.90;;;;;;4957243;28;20242;-74
2022/04/10 04:38:56;;;;;;;7.03;5.60;;;2.40;99.90;;;;;;4957179;29;20673;-73
2022/04/10 04:41:22;;;;;;;9.57;5.43;;;2.40;99.90;;;;;;4956828;28;20609;-74
2022/04/10 04:43:47;;;;;;;6.67;5.90;;;2.50;99.90;;;;;;4957117;28;20428;-74
2022/04/10 04:46:13;;;;;;;6.50;5.30;;;2.50;99.90;;;;;;4957150;29;20191;-73
2022/04/10 04:48:39;;;;;;;6.07;5.13;;;2.60;99.90;;;;;;4957170;29;20551;-73
2022/04/10 04:51:04;;;;;;;7.90;4.70;;;2.60;99.90;;;;;;4956655;28;20440;-74
2022/04/10 04:53:30;;;;;;;14.57;6.67;;;2.60;99.90;;;;;;4956917;28;20306;-74
2022/04/10 04:55:55;;;;;;;7.90;5.80;;;2.60;99.90;;;;;;4956763;29;20320;-73
2022/04/10 04:58:21;;;;;;;10.93;5.67;;;2.70;99.90;;;;;;4956649;29;20227;-73
2022/04/10 05:00:47;;;;;;;8.40;4.43;;;2.80;99.90;;;;;;4956721;28;20220;-73
2022/04/10 05:03:15;;;;;;;6.43;5.83;;;2.90;99.90;;;;;;4956781;29;20181;-74
2022/04/10 05:05:40;;;;;;;7.33;5.40;;;2.90;99.90;;;;;;4956836;29;20476;-74
2022/04/10 05:08:06;;;;;;;11.03;6.40;;;3.00;99.90;;;;;;4956855;29;20394;-71
2022/04/10 05:10:32;;;;;;;14.00;5.87;;;3.00;99.90;;;;;;4956291;28;20209;-71
2022/04/10 05:12:57;;;;;;;6.57;5.87;;;3.10;99.90;;;;;;4956537;28;20689;-71
2022/04/10 05:15:23;;;;;;;6.30;5.73;;;3.10;99.90;;;;;;4943246;29;20185;-72
2022/04/10 05:17:49;;;;;;;6.80;5.50;;;3.20;99.90;;;;;;4937625;29;20235;-72
2022/04/10 05:20:14;;;;;;;6.17;5.63;;;3.30;99.90;;;;;;4937351;29;20177;-71
2022/04/10 05:22:41;;;;;;;7.63;4.93;;;3.40;99.90;;;;;;4936939;29;20194;-71
2022/04/10 05:25:08;;;;;;;8.73;4.57;;;3.40;99.90;;;;;;4937186;29;20216;-71
2022/04/10 05:27:33;;;;;;;6.20;5.60;;;3.50;99.90;;;;;;4935818;29;20834;-72
2022/04/10 05:29:59;;;;;;;6.30;5.23;;;3.60;99.90;;;;;;4937154;29;20476;-72
2022/04/10 05:32:24;;;;;;;6.70;5.40;;;3.70;99.90;;;;;;4936574;29;20226;-72
2022/04/10 05:34:50;;;;;;;7.37;5.07;;;3.80;99.90;;;;;;4937530;29;20261;-72
2022/04/10 05:37:15;;;;;;;5.43;4.93;;;3.90;99.90;;;;;;4936956;29;20644;-71
2022/04/10 05:39:42;;;;;;;7.00;5.40;;;4.00;99.90;;;;;;4937051;29;20677;-71
2022/04/10 05:42:08;;;;;;;5.40;4.90;;;4.10;99.90;;;;;;4934958;29;20219;-72
2022/04/10 05:44:34;;;;;;;6.47;5.53;;;4.40;99.90;;;;;;4936963;29;20924;-72
2022/04/10 05:47:00;;;;;;;5.47;4.37;;;4.70;99.90;;;;;;4936714;29;20175;-72
2022/04/10 05:49:26;;;;;;;4.20;3.90;;;4.90;99.90;;;;;;4936645;29;20428;-72
2022/04/10 05:51:52;;;;;;;4.63;4.33;;;5.20;99.90;;;;;;4936492;29;20232;-70
2022/04/10 05:54:18;;;;;;;11.30;5.27;;;5.50;99.90;;;;;;4936309;29;20211;-72
2022/04/10 05:56:43;;;;;;;7.77;4.90;;;5.60;99.90;;;;;;4936492;29;20917;-73
2022/04/10 05:59:09;;;;;;;5.13;4.63;;;5.90;99.90;;;;;;4936484;29;20485;-73
2022/04/10 06:01:34;;;;;;;6.67;4.07;;;7.30;99.90;;;;;;4936785;29;20207;-73
2022/04/10 06:04:00;;;;;;;4.77;3.70;;;8.90;99.90;;;;;;4936709;29;20191;-73
2022/04/10 06:06:25;;;;;;;3.90;3.60;;;10.10;99.90;;;;;;4937317;29;20187;-74
2022/04/10 06:08:51;;;;;;;4.40;3.87;;;10.10;99.90;;;;;;4937470;29;20737;-73
2022/04/10 06:11:17;;;;;;;9.00;4.53;;;9.70;99.90;;;;;;4935788;29;20219;-73
2022/04/10 06:13:42;;;;;;;4.10;3.70;;;9.10;99.90;;;;;;4936284;29;20207;-73
2022/04/10 06:16:08;;;;;;;4.50;4.10;;;8.60;99.90;;;;;;4936231;29;20263;-73
2022/04/10 06:18:33;;;;;;;7.23;4.10;;;7.90;99.90;;;;;;4935995;29;20177;-73
2022/04/10 06:20:59;;;;;;;4.67;4.27;;;7.30;99.90;;;;;;4935902;29;20197;-73
2022/04/10 06:23:25;;;;;;;6.97;3.80;;;6.80;99.90;;;;;;4936048;29;20277;-73
2022/04/10 06:25:51;;;;;;;7.03;4.10;;;6.70;99.90;;;;;;4936000;29;20179;-73
2022/04/10 06:28:16;;;;;;;4.90;4.43;;;6.50;99.90;;;;;;4935799;29;20185;-72
2022/04/10 06:30:43;;;;;;;5.23;4.00;;;6.40;99.90;;;;;;4934469;29;20428;-73
2022/04/10 06:33:09;;;;;;;6.67;4.60;;;6.40;99.90;;;;;;4935719;29;20204;-72
2022/04/10 06:35:34;;;;;;;4.40;3.93;;;6.50;99.90;;;;;;4940633;29;20442;-72
2022/04/10 06:38:00;;;;;;;4.50;4.17;;;6.40;99.90;;;;;;4935738;29;20180;-73
2022/04/10 06:40:25;;;;;;;5.27;4.67;;;6.40;99.90;;;;;;4935376;29;20183;-73
2022/04/10 06:42:51;;;;;;;6.77;4.63;;;6.50;99.90;;;;;;4935479;29;20678;-73
2022/04/10 06:45:17;;;;;;;5.43;4.27;;;6.60;99.90;;;;;;4935671;29;20192;-73
2022/04/10 06:47:42;;;;;;;3.87;3.57;;;6.70;99.90;;;;;;4935633;29;20550;-73
2022/04/10 06:50:08;;;;;;;7.13;4.27;;;6.70;99.90;;;;;;4935573;29;20938;-72
2022/04/10 06:52:35;;;;;;;5.17;4.67;;;6.80;99.90;;;;;;4934981;29;20238;-73
2022/04/10 06:55:00;;;;;;;4.83;4.33;;;6.70;99.90;;;;;;4934808;29;20170;-73
2022/04/10 06:57:26;;;;;;;5.03;3.83;;;6.70;99.90;;;;;;4935415;29;20773;-72
2022/04/10 06:59:51;;;;;;;3.90;3.60;;;6.70;99.90;;;;;;4935180;29;20186;-71
2022/04/10 07:02:17;;;;;;;5.00;3.70;;;6.80;99.90;;;;;;4935068;29;20207;-72
2022/04/10 07:04:42;;;;;;;7.47;4.63;;;6.80;99.90;;;;;;4935373;29;20268;-72
2022/04/10 07:07:08;;;;;;;7.40;4.43;;;7.00;99.90;;;;;;4935297;29;20224;-73
2022/04/10 07:09:33;;;;;;;5.47;4.70;;;7.10;99.90;;;;;;4935042;29;20192;-73
2022/04/10 07:11:59;;;;;;;5.60;4.40;;;7.20;99.90;;;;;;4934924;29;20215;-73
2022/04/10 07:14:24;;;;;;;5.27;4.87;;;7.20;99.90;;;;;;4935098;29;20224;-72
2022/04/10 07:16:50;;;;;;;4.93;4.30;;;7.30;99.90;;;;;;4935153;29;20677;-73
2022/04/10 07:19:16;;;;;;;6.70;4.60;;;7.40;99.90;;;;;;4934919;29;20177;-73
2022/04/10 07:24:26;;;;;;;5.20;4.73;;;7.70;99.90;;;;;;4934947;29;20304;-72
2022/04/10 07:26:52;;;;;;;4.50;3.50;;;7.90;99.90;;;;;;4935038;29;20464;-74
2022/04/10 07:29:18;;;;;;;6.23;4.70;;;7.90;99.90;;;;;;4933750;29;20436;-73
2022/04/10 07:31:43;;;;;;;4.57;4.10;;;7.80;99.90;;;;;;4934298;29;20469;-72
2022/04/10 07:34:09;;;;;;;4.63;4.23;;;7.90;99.90;;;;;;4934916;29;20297;-72
2022/04/10 07:36:34;;;;;;;4.47;4.07;;;8.10;99.90;;;;;;4934790;29;20186;-74
2022/04/10 07:39:00;;;;;;;4.53;4.00;;;8.20;99.90;;;;;;4935116;29;20175;-73
2022/04/10 07:41:26;;;;;;;7.60;4.50;;;8.00;99.90;;;;;;4934359;29;20192;-74
2022/04/10 07:43:51;;;;;;;7.03;4.20;;;8.20;99.90;;;;;;4935233;29;20594;-74
2022/04/10 07:49:00;;;;;;;5.83;4.90;;;8.60;99.90;;;;;;4934756;29;20193;-74
2022/04/10 07:51:26;;;;;;;11.30;4.30;;;8.90;99.90;;;;;;4933960;29;20447;-73
2022/04/10 07:53:54;;;;;;;5.13;4.07;;;9.10;99.90;;;;;;4934632;29;20210;-74
2022/04/10 07:56:20;;;;;;;7.13;4.67;;;9.10;99.90;;;;;;4932998;29;20684;-74
2022/04/10 07:58:46;;;;;;;5.87;3.60;;;9.30;99.90;;;;;;4934634;29;20454;-74
2022/04/10 08:01:11;;;;;;;7.13;4.00;;;9.40;99.90;;;;;;4934103;29;20434;-74
2022/04/10 08:03:37;;;;;;;7.90;3.90;;;9.60;99.90;;;;;;4934463;29;20191;-74
2022/04/10 08:06:02;;;;;;;6.50;4.07;;;9.70;99.90;;;;;;4935700;29;20182;-75
2022/04/10 08:08:28;;;;;;;9.03;4.20;;;9.50;99.90;;;;;;4935432;29;20671;-74
2022/04/10 08:10:54;;;;;;;5.30;4.10;;;9.40;99.90;;;;;;4934493;29;20260;-74
2022/04/10 08:13:20;;;;;;;4.93;4.17;;;9.30;99.90;;;;;;4933991;29;20229;-74
2022/04/10 08:15:46;;;;;;;4.47;4.07;;;9.40;99.90;;;;;;4934492;29;20173;-74
2022/04/10 08:18:11;;;;;;;5.30;4.67;;;9.40;99.90;;;;;;4934358;29;20416;-74
2022/04/10 08:20:37;;;;;;;5.53;4.97;;;9.50;99.90;;;;;;4933815;29;20895;-73
2022/04/10 08:23:03;;;;;;;4.60;3.93;;;9.60;99.90;;;;;;4934144;29;20174;-73
2022/04/10 08:25:28;;;;;;;4.20;3.80;;;9.80;99.90;;;;;;4934158;29;20228;-73
2022/04/10 08:27:54;;;;;;;4.50;4.10;;;9.80;99.90;;;;;;4934082;29;20185;-73
2022/04/10 08:30:20;;;;;;;4.23;3.90;;;10.00;99.90;;;;;;4934319;29;20201;-74
2022/04/10 08:32:45;;;;;;;4.87;4.40;;;10.10;99.90;;;;;;4933559;29;20222;-73
2022/04/10 08:35:12;;;;;;;5.20;3.90;;;10.10;99.90;;;;;;4934020;29;20176;-74
2022/04/10 08:37:38;;;;;;;5.43;4.20;;;10.30;99.90;;;;;;4934335;29;20257;-74
2022/04/10 08:40:05;;;;;;;7.50;4.30;;;10.40;99.90;;;;;;4934162;29;20934;-73
2022/04/10 08:42:31;;;;;;;6.20;5.17;;;10.40;99.90;;;;;;4933696;29;20436;-73
2022/04/10 08:44:57;;;;;;;7.37;5.03;;;10.30;99.90;;;;;;4934073;29;20578;-73
2022/04/10 08:47:24;;;;;;;4.80;4.30;;;10.30;99.90;;;;;;4933959;29;20694;-73
2022/04/10 08:49:51;;;;;;;6.60;5.50;;;10.30;99.90;;;;;;4933001;28;20449;-73
2022/04/10 08:52:19;;;;;;;5.60;4.33;;;10.30;99.90;;;;;;4946481;28;20438;-73
2022/04/10 08:54:46;;;;;;;9.80;4.70;;;10.30;99.90;;;;;;4951116;28;20473;-73
2022/04/10 08:57:12;;;;;;;4.07;3.67;;;10.50;99.90;;;;;;4952878;28;20415;-74
2022/04/10 08:59:38;;;;;;;4.50;4.10;;;10.70;99.90;;;;;;4943984;28;20433;-75
2022/04/10 09:02:04;;;;;;;12.57;4.93;;;10.70;99.90;;;;;;4956676;28;20392;-73
2022/04/10 09:04:31;;;;;;;6.27;4.10;;;11.00;99.90;;;;;;4953094;28;20427;-74
2022/04/10 09:07:05;;;;;;;3.83;3.53;;;11.50;99.90;;;;;;4953097;28;20183;-74
2022/04/10 09:09:31;;;;;;;9.50;5.70;;;11.80;99.90;;;;;;4952764;28;20776;-74
2022/04/10 09:11:58;;;;;;;4.90;4.10;;;11.90;99.90;;;;;;4952662;28;20435;-75
2022/04/10 09:14:26;;;;;;;7.10;3.93;;;12.10;99.90;;;;;;4953219;28;20464;-75
2022/04/10 09:17:22;;;;;;;4.30;3.97;;;11.90;99.90;;;;;;4949521;28;20432;-74
2022/04/10 09:19:53;;;;;;;4.20;3.90;;;11.90;99.90;;;;;;4956117;28;20875;-75
2022/04/10 09:22:30;;;;;;;4.53;3.80;;;11.90;99.90;;;;;;4975174;28;20430;-75
2022/04/10 09:25:11;;;;;;;3.53;3.13;;;11.70;99.90;;;;;;4974653;28;20506;-76
2022/04/10 09:27:45;;;;;;;6.50;3.60;;;11.30;99.90;;;;;;4949057;28;20416;-76
2022/04/10 09:30:13;;;;;;;5.47;3.70;;;11.20;99.90;;;;;;4955948;29;20416;-76
2022/04/10 09:32:44;;;;;;;3.90;3.60;;;11.40;99.90;;;;;;4955658;28;20455;-74
2022/04/10 09:35:18;;;;;;;3.83;3.43;;;11.20;99.90;;;;;;4956245;28;20416;-74
2022/04/10 09:37:47;;;;;;;7.73;3.97;;;10.90;99.90;;;;;;4956216;28;20498;-74
2022/04/10 09:40:33;;;;;;;5.67;2.70;;;11.30;99.90;;;;;;4956678;28;20415;-75
2022/04/10 09:43:04;;;;;;;5.53;3.37;;;12.30;99.90;;;;;;4955958;28;20432;-75
2022/04/10 09:45:34;;;;;;;6.40;3.17;;;13.10;99.90;;;;;;4955764;29;20416;-75
2022/04/10 09:48:21;;;;;;;2.70;2.50;;;13.90;99.90;;;;;;4955869;29;20455;-73
2022/04/10 09:50:52;;;;;;;4.33;3.10;;;14.10;99.90;;;;;;4940545;29;20430;-74
2022/04/10 09:53:18;;;;;;;4.70;2.50;;;13.90;99.90;;;;;;4955533;28;20968;-74
2022/04/10 09:55:44;;;;;;;7.20;3.37;;;14.30;99.90;;;;;;4956034;29;20416;-75
2022/04/10 09:58:11;;;;;;;10.67;2.70;;;14.10;99.90;;;;;;4955850;29;20417;-72
2022/04/10 10:00:39;;;;;;;4.33;3.00;;;13.60;99.90;;;;;;4955367;29;20417;-75
2022/04/10 10:03:06;;;;;;;3.23;2.80;;;12.80;99.90;;;;;;4955683;29;20412;-75
2022/04/10 10:05:32;;;;;;;4.57;4.10;;;12.00;99.90;;;;;;4955779;28;20608;-75
2022/04/10 10:07:59;;;;;;;11.37;4.17;;;11.60;99.90;;;;;;4955633;28;20405;-75
2022/04/10 10:10:30;;;;;;;2.80;2.40;;;11.40;99.90;;;;;;4954279;29;20470;-74
2022/04/10 10:12:57;;;;;;;3.07;2.10;;;11.10;99.90;;;;;;4952580;28;20479;-76
2022/04/10 10:15:23;;;;;;;4.50;2.47;;;11.10;99.90;;;;;;4954561;28;20472;-75
2022/04/10 10:17:49;;;;;;;5.73;3.43;;;11.10;99.90;;;;;;4954287;28;20467;-75
2022/04/10 10:20:17;;;;;;;5.77;2.93;;;11.00;99.90;;;;;;4955158;29;20564;-75
2022/04/10 10:22:42;;;;;;;2.50;2.30;;;10.80;99.90;;;;;;4955027;28;20482;-73
2022/04/10 10:25:27;;;;;;;5.40;3.60;;;10.20;99.90;;;;;;4944152;29;20464;-75
2022/04/10 10:28:08;;;;;;;6.00;3.10;;;9.80;99.90;;;;;;4953393;28;20672;-74
2022/04/10 10:30:45;;;;;;;6.70;3.53;;;9.50;99.90;;;;;;4954094;29;20429;-74
2022/04/10 10:33:23;;;;;;;5.77;4.13;;;9.20;99.90;;;;;;4952025;28;20477;-75
2022/04/10 10:35:50;;;;;;;10.30;4.07;;;9.00;99.90;;;;;;4950069;28;20503;-74
2022/04/10 10:38:23;;;;;;;6.37;4.33;;;8.90;99.90;;;;;;4952583;28;20459;-74
2022/04/10 10:40:50;;;;;;;3.97;3.67;;;8.80;99.90;;;;;;4954097;28;20437;-73
2022/04/10 10:43:33;;;;;;;5.97;4.40;;;8.90;99.90;;;;;;4952040;28;20541;-72
2022/04/10 10:45:59;;;;;;;14.33;5.90;;;9.20;99.90;;;;;;4953985;28;20969;-72
2022/04/10 10:48:38;;;;;;;4.47;4.07;;;9.50;99.90;;;;;;4954182;28;20455;-73
2022/04/10 10:51:10;;;;;;;9.40;5.63;;;10.00;99.90;;;;;;4953872;28;20203;-73
2022/04/10 10:53:52;;;;;;;10.07;4.80;;;10.20;99.90;;;;;;4952336;28;20510;-73
2022/04/10 10:56:17;;;;;;;7.43;4.73;;;10.00;99.90;;;;;;4947553;28;20446;-73
2022/04/10 10:58:44;;;;;;;6.07;4.50;;;10.00;99.90;;;;;;4943637;28;20455;-73
2022/04/10 11:01:18;;;;;;;11.00;3.70;;;9.50;99.90;;;;;;4953536;28;20234;-73
2022/04/10 11:04:03;;;;;;;3.67;2.43;;;9.20;99.90;;;;;;4952751;29;20447;-73
2022/04/10 11:06:43;;;;;;;2.50;2.07;;;9.00;99.90;;;;;;4953557;28;20511;-73
2022/04/10 11:09:28;;;;;;;4.90;2.63;;;9.10;99.90;;;;;;4955326;28;21068;-73
2022/04/10 11:11:56;;;;;;;3.03;2.37;;;9.80;99.90;;;;;;4954253;29;20518;-73
2022/04/10 11:14:41;;;;;;;3.70;2.70;;;10.40;99.90;;;;;;4953773;28;20493;-73
2022/04/10 11:17:20;;;;;;;7.77;3.83;;;10.70;99.90;;;;;;4954674;28;20542;-74
2022/04/10 11:19:52;;;;;;;9.23;3.93;;;10.70;99.90;;;;;;4953116;28;20827;-73
2022/04/10 11:22:20;;;;;;;4.50;3.67;;;10.60;99.90;;;;;;4953567;28;20450;-73
2022/04/10 11:24:50;;;;;;;7.53;4.93;;;10.40;99.90;;;;;;4936754;29;20521;-73
2022/04/10 11:27:42;;;;;;;6.80;4.80;;;10.40;99.90;;;;;;4953195;29;20495;-74
2022/04/10 11:30:11;;;;;;;5.93;3.80;;;10.30;99.90;;;;;;4953657;28;20465;-74
2022/04/10 11:32:48;;;;;;;5.93;4.13;;;10.20;99.90;;;;;;4953191;29;20493;-72
2022/04/10 11:35:16;;;;;;;6.23;4.33;;;10.00;99.90;;;;;;4953785;28;20474;-73
2022/04/10 11:37:46;;;;;;;4.90;4.50;;;10.00;99.90;;;;;;4953277;28;20440;-73
2022/04/10 11:40:12;;;;;;;6.67;4.10;;;10.00;99.90;;;;;;4951729;28;20859;-72
2022/04/10 11:42:38;;;;;;;5.80;4.23;;;10.10;99.90;;;;;;4952975;28;20433;-73
2022/04/10 11:45:03;;;;;;;5.13;4.63;;;10.60;99.90;;;;;;4953556;28;20244;-73
2022/04/10 11:47:29;;;;;;;5.53;4.43;;;11.10;99.90;;;;;;4953415;28;20194;-73
2022/04/10 11:49:56;;;;;;;6.60;4.40;;;11.40;99.90;;;;;;4953472;28;20594;-74
2022/04/10 11:52:22;;;;;;;11.10;4.57;;;11.60;99.90;;;;;;4952724;29;20315;-75
2022/04/10 11:54:50;;;;;;;7.33;4.33;;;11.60;99.90;;;;;;4953027;28;20628;-73
2022/04/10 11:57:16;;;;;;;7.40;5.47;;;11.50;99.90;;;;;;4937395;29;20470;-74
2022/04/10 11:59:43;;;;;;;10.07;4.73;;;11.30;99.90;;;;;;4933967;28;20830;-74
2022/04/10 12:02:10;;;;;;;5.13;4.27;;;10.90;99.90;;;;;;4933815;29;20779;-74
2022/04/10 12:04:40;;;;;;;4.93;4.53;;;10.40;99.90;;;;;;4938682;28;21181;-74
2022/04/10 12:07:23;;;;;;;7.60;4.90;;;10.20;99.90;;;;;;4943320;28;20445;-75
2022/04/10 12:09:54;;;;;;;6.83;4.50;;;10.10;99.90;;;;;;4943438;28;20614;-74
2022/04/10 12:12:20;;;;;;;5.60;4.47;;;10.20;99.90;;;;;;4943445;29;20515;-74
2022/04/10 12:14:49;;;;;;;5.63;3.63;;;10.30;99.90;;;;;;4941227;28;21095;-74
2022/04/10 12:17:19;;;;;;;7.83;3.73;;;10.60;99.90;;;;;;4943900;29;20473;-74
2022/04/10 12:19:45;;;;;;;4.80;4.10;;;10.70;99.90;;;;;;4941287;28;20473;-75
2022/04/10 12:22:11;;;;;;;5.57;3.80;;;11.00;99.90;;;;;;4940935;29;20960;-72
2022/04/10 12:24:37;;;;;;;6.60;3.23;;;11.20;99.90;;;;;;4933408;28;20221;-76
2022/04/10 12:27:06;;;;;;;4.30;3.50;;;11.40;99.90;;;;;;4933573;29;20620;-74
2022/04/10 12:29:33;;;;;;;5.53;3.50;;;11.50;99.90;;;;;;4933338;28;20500;-74
2022/04/10 12:31:59;;;;;;;5.90;3.50;;;11.60;99.90;;;;;;4933684;29;20478;-73
2022/04/10 12:34:35;;;;;;;7.60;4.10;;;11.70;99.90;;;;;;4934122;28;20502;-73
2022/04/10 12:37:08;;;;;;;7.67;4.97;;;12.00;99.90;;;;;;4933968;29;20247;-73
2022/04/10 12:39:34;;;;;;;3.23;2.70;;;12.00;99.90;;;;;;4933310;28;20978;-72
2022/04/10 12:42:09;;;;;;;3.20;3.00;;;12.00;99.90;;;;;;4933067;29;20811;-72
2022/04/10 12:44:37;;;;;;;6.07;3.63;;;11.90;99.90;;;;;;4931995;29;20474;-72
2022/04/10 12:47:08;;;;;;;4.87;3.47;;;12.00;99.90;;;;;;4933652;29;20452;-73
2022/04/10 12:49:35;;;;;;;4.50;3.00;;;11.90;99.90;;;;;;4932633;29;20448;-73
2022/04/10 12:52:05;;;;;;;6.40;3.07;;;11.50;99.90;;;;;;4953802;28;20869;-74
2022/04/10 12:54:37;;;;;;;3.67;3.37;;;11.00;99.90;;;;;;4956563;29;20510;-74
2022/04/10 12:57:04;;;;;;;4.30;3.10;;;11.00;99.90;;;;;;4956849;28;20415;-73
2022/04/10 12:59:46;;;;;;;5.40;2.93;;;10.90;99.90;;;;;;4956540;29;20983;-74
2022/04/10 13:02:27;;;;;;;3.50;2.80;;;10.90;99.90;;;;;;4956414;28;20450;-74
2022/04/10 13:04:56;;;;;;;5.50;3.30;;;11.10;99.90;;;;;;4955854;28;20456;-73
2022/04/10 13:07:24;;;;;;;4.43;3.53;;;11.30;99.90;;;;;;4937249;29;20451;-75
2022/04/10 13:10:10;;;;;;;4.03;2.37;;;11.10;99.90;;;;;;4937494;29;21001;-73
2022/04/10 13:12:37;;;;;;;3.60;3.30;;;11.00;99.90;;;;;;4936858;29;20463;-74
2022/04/10 13:15:04;;;;;;;4.50;3.10;;;10.90;99.90;;;;;;4937292;29;20412;-73
2022/04/10 13:17:41;;;;;;;3.33;3.13;;;11.10;99.90;;;;;;4936922;29;20864;-74
2022/04/10 13:20:11;;;;;;;4.13;3.13;;;11.00;99.90;;;;;;4937013;29;20426;-75
2022/04/10 13:22:41;;;;;;;3.03;2.73;;;11.00;99.90;;;;;;4936717;29;20436;-74
2022/04/10 13:25:10;;;;;;;4.53;3.70;;;10.90;99.90;;;;;;4937110;29;20467;-74
2022/04/10 13:27:36;;;;;;;4.33;3.00;;;11.00;99.90;;;;;;4936817;29;20416;-73
2022/04/10 13:30:02;;;;;;;6.53;3.40;;;10.70;99.90;;;;;;4936967;29;20408;-73
2022/04/10 13:32:27;;;;;;;7.03;3.63;;;10.60;99.90;;;;;;4936266;29;20211;-74
2022/04/10 13:34:53;;;;;;;6.57;3.43;;;10.70;99.90;;;;;;4936913;29;20460;-74
2022/04/10 13:37:19;;;;;;;4.67;3.87;;;10.50;99.90;;;;;;4936451;29;20369;-73
2022/04/10 13:39:45;;;;;;;5.27;3.60;;;10.60;99.90;;;;;;4936711;29;20507;-74
2022/04/10 13:42:11;;;;;;;3.93;3.20;;;10.70;99.90;;;;;;4936343;29;20196;-74
2022/04/10 13:44:37;;;;;;;4.17;2.97;;;10.70;99.90;;;;;;4936560;29;20424;-74
2022/04/10 13:47:03;;;;;;;4.10;3.13;;;10.60;99.90;;;;;;4936688;29;20185;-73
2022/04/10 13:49:29;;;;;;;4.13;3.10;;;10.60;99.90;;;;;;4936391;29;20511;-74
2022/04/10 13:51:54;;;;;;;3.20;2.90;;;10.50;99.90;;;;;;4936432;29;20234;-74
2022/04/10 13:54:20;;;;;;;4.33;3.30;;;10.20;99.90;;;;;;4936362;29;20216;-74
2022/04/10 13:56:45;;;;;;;4.50;2.90;;;10.10;99.90;;;;;;4936780;29;20243;-73
2022/04/10 13:59:11;;;;;;;4.90;3.30;;;10.20;99.90;;;;;;4936544;29;20216;-74
2022/04/10 14:01:36;;;;;;;3.63;3.23;;;10.50;99.90;;;;;;4936185;29;20196;-74
2022/04/10 14:04:03;;;;;;;3.97;2.97;;;10.60;99.90;;;;;;4936230;29;20187;-73
2022/04/10 14:06:29;;;;;;;8.20;4.30;;;10.70;99.90;;;;;;4936185;29;20175;-74
2022/04/10 14:08:58;;;;;;;5.60;3.60;;;10.70;99.90;;;;;;4936253;29;20421;-74
2022/04/10 14:11:26;;;;;;;4.37;3.13;;;10.40;99.90;;;;;;4935818;29;20196;-74
2022/04/10 14:13:52;;;;;;;4.50;3.83;;;10.30;99.90;;;;;;4936185;29;20553;-73
2022/04/10 14:16:19;;;;;;;6.27;3.30;;;10.40;99.90;;;;;;4936045;29;20508;-74
2022/04/10 14:18:45;;;;;;;9.83;3.43;;;10.60;99.90;;;;;;4936106;29;20185;-74
2022/04/10 14:21:10;;;;;;;5.70;3.00;;;10.70;99.90;;;;;;4935848;29;20448;-74
2022/04/10 14:23:36;;;;;;;4.70;3.93;;;10.80;99.90;;;;;;4935948;29;20424;-74
2022/04/10 14:26:01;;;;;;;5.23;3.50;;;10.60;99.90;;;;;;4936084;29;20657;-75
2022/04/10 14:28:27;;;;;;;4.03;2.93;;;10.80;99.90;;;;;;4935741;29;20192;-74
2022/04/10 14:30:53;;;;;;;5.70;3.53;;;10.80;99.90;;;;;;4935573;29;20684;-74